USTS Kennedy — KVMU — position and weather

sailwx.info

Track history (hours):
 
Tides and Currents Weather Stations Pressure Air Temp Water Temp Dewpoint Dewpoint Depression Visibility Wind Speed Wind Dir Waves Ship Positions

USTS Kennedy (United States)

Training ship of Massachusetts Maritime Academy. Ex Cape Bon, ex Velma Lykes, ex Enterprise.

Ship's website: http://www.maritime.edu/

Owner: Massachusetts Maritime Academy, Buzzards Bay, MA. More information available from US FCC via Universal Licensing System and Coast Guard Vessel Documentation Center.

Last reported at 2018-Aug-30 08:22 UTC. Time now 2018-Nov-14 02:52 UTC.
Position N 41°09' W 071°18'.
Warning: this ship's position is months out of date.

Type: Ship. MMSI: 338919000.

Date/timePositionNaut miles runAvg speedWind from/ knotsBaromVisibWave heightAir tempDewpointWater temp
2018-Aug-30 08:22N 41°09' W 071°18'3 3.1
2018-Aug-30 07:23N 41°07' W 071°21'34 5.7
2018-Aug-30 01:31N 41°14' W 072°04'0 6.3
2018-Aug-30 01:30N 41°14' W 072°04'3 6.7
2018-Aug-30 01:03N 41°14' W 072°08'0 7.3
2018-Aug-30 01:00N 41°14' W 072°09'4 7.8
2018-Aug-30 00:30N 41°13' W 072°14'4 8.3
2018-Aug-30 00:03N 41°12' W 072°19'0 8.3
2018-Aug-30 00:00N 41°12' W 072°19'4 8.5
2018-Aug-29 23:30N 41°11' W 072°25'4 7.8
2018-Aug-29 23:03N 41°10' W 072°29'0 7.7
2018-Aug-29 23:00N 41°10' W 072°30'510.4
2018-Aug-29 22:30N 41°09' W 072°36'4 8.4
2018-Aug-29 22:03N 41°09' W 072°41'0 7.3
2018-Aug-29 22:00N 41°09' W 072°42'4 7.5
2018-Aug-29 21:25N 41°10' W 072°47'3 3.0
2018-Aug-29 20:27N 41°11' W 072°51'4 8.8
2018-Aug-29 20:03N 41°09' W 072°55'1 9.6
2018-Aug-29 19:55N 41°08' W 072°56'45 9.0
2018-Aug-29 14:54N 40°48' W 073°50'8 9.0
2018-Aug-29 14:03N 40°44' W 073°58'611.4
2018-Aug-29 13:30N 40°39' W 074°03'511.7
2018-Aug-29 13:03N 40°34' W 074°02'114.1
2018-Aug-29 13:00N 40°33' W 074°02'713.6
2018-Aug-29 12:30N 40°29' W 073°54'512.0
2018-Aug-29 12:03N 40°27' W 073°48'0 6.5
2018-Aug-29 11:59N 40°27' W 073°47'4 7.8
2018-Aug-29 11:30N 40°27' W 073°43'4 8.7
2018-Aug-29 11:04N 40°27' W 073°37'0 8.4
2018-Aug-29 11:00N 40°27' W 073°37'4 8.4
2018-Aug-29 10:31N 40°28' W 073°31'4 8.8
2018-Aug-29 10:03N 40°28' W 073°26'0 8.8
2018-Aug-29 10:00N 40°28' W 073°26'5 8.9
2018-Aug-29 09:30N 40°28' W 073°20'4 9.1
2018-Aug-29 09:02N 40°29' W 073°14'0 9.0
2018-Aug-29 09:00N 40°29' W 073°14'5 9.4
2018-Aug-29 08:26N 40°29' W 073°07'60 7.9
2018-Aug-29 00:52N 40°44' W 071°51'  
2018-Aug-26 08:16N 41°44' W 070°38'0 0.0
2018-Aug-26 07:10N 41°44' W 070°38'0 0.0
2018-Aug-26 06:58N 41°44' W 070°38'0 0.0
2018-Aug-26 06:16N 41°44' W 070°38'0 0.0
2018-Aug-24 09:22N 41°44' W 070°38'0 0.0
2018-Aug-24 09:00N 41°44' W 070°38'  
Track history (hours):
 
Tides and Currents Weather Stations Pressure Air Temp Water Temp Dewpoint Dewpoint Depression Visibility Wind Speed Wind Dir Waves Ship Positions

USTS Kennedy (United States)

Training ship of Massachusetts Maritime Academy. Ex Cape Bon, ex Velma Lykes, ex Enterprise.

Ship's website: http://www.maritime.edu/

Owner: Massachusetts Maritime Academy, Buzzards Bay, MA. More information available from US FCC via Universal Licensing System and Coast Guard Vessel Documentation Center.

Last reported at 2018-Aug-30 08:22 UTC. Time now 2018-Nov-14 02:52 UTC.
Position N 41°09' W 071°18'.
Warning: this ship's position is months out of date.

Type: Ship. MMSI: 338919000.

Date/timePositionNaut miles runAvg speedWind from/ knotsBaromVisibWave heightAir tempDewpointWater temp
2018-Aug-30 08:22N 41°09' W 071°18'3 3.1
2018-Aug-30 07:23N 41°07' W 071°21'34 5.7
2018-Aug-30 01:31N 41°14' W 072°04'0 6.3
2018-Aug-30 01:30N 41°14' W 072°04'3 6.7
2018-Aug-30 01:03N 41°14' W 072°08'0 7.3
2018-Aug-30 01:00N 41°14' W 072°09'4 7.8
2018-Aug-30 00:30N 41°13' W 072°14'4 8.3
2018-Aug-30 00:03N 41°12' W 072°19'0 8.3
2018-Aug-30 00:00N 41°12' W 072°19'4 8.5
2018-Aug-29 23:30N 41°11' W 072°25'4 7.8
2018-Aug-29 23:03N 41°10' W 072°29'0 7.7
2018-Aug-29 23:00N 41°10' W 072°30'510.4
2018-Aug-29 22:30N 41°09' W 072°36'4 8.4
2018-Aug-29 22:03N 41°09' W 072°41'0 7.3
2018-Aug-29 22:00N 41°09' W 072°42'4 7.5
2018-Aug-29 21:25N 41°10' W 072°47'3 3.0
2018-Aug-29 20:27N 41°11' W 072°51'4 8.8
2018-Aug-29 20:03N 41°09' W 072°55'1 9.6
2018-Aug-29 19:55N 41°08' W 072°56'45 9.0
2018-Aug-29 14:54N 40°48' W 073°50'8 9.0
2018-Aug-29 14:03N 40°44' W 073°58'611.4
2018-Aug-29 13:30N 40°39' W 074°03'511.7
2018-Aug-29 13:03N 40°34' W 074°02'114.1
2018-Aug-29 13:00N 40°33' W 074°02'713.6
2018-Aug-29 12:30N 40°29' W 073°54'512.0
2018-Aug-29 12:03N 40°27' W 073°48'0 6.5
2018-Aug-29 11:59N 40°27' W 073°47'4 7.8
2018-Aug-29 11:30N 40°27' W 073°43'4 8.7
2018-Aug-29 11:04N 40°27' W 073°37'0 8.4
2018-Aug-29 11:00N 40°27' W 073°37'4 8.4
2018-Aug-29 10:31N 40°28' W 073°31'4 8.8
2018-Aug-29 10:03N 40°28' W 073°26'0 8.8
2018-Aug-29 10:00N 40°28' W 073°26'5 8.9
2018-Aug-29 09:30N 40°28' W 073°20'4 9.1
2018-Aug-29 09:02N 40°29' W 073°14'0 9.0
2018-Aug-29 09:00N 40°29' W 073°14'5 9.4
2018-Aug-29 08:26N 40°29' W 073°07'60 7.9
2018-Aug-29 00:52N 40°44' W 071°51'  
2018-Aug-26 08:16N 41°44' W 070°38'0 0.0
2018-Aug-26 07:10N 41°44' W 070°38'0 0.0
2018-Aug-26 06:58N 41°44' W 070°38'0 0.0
2018-Aug-26 06:16N 41°44' W 070°38'0 0.0
2018-Aug-24 09:22N 41°44' W 070°38'0 0.0
2018-Aug-24 09:00N 41°44' W 070°38'  

Dump ship's entire track history